createdAt,value
2023-04-13T00:03:04.504Z,68.60
2023-04-13T00:06:10.876Z,60.10
2023-04-13T00:09:15.962Z,65.28
2023-04-13T00:12:21.254Z,66.38
2023-04-13T00:15:26.574Z,63.47
2023-04-13T00:18:29.816Z,71.85
2023-04-13T00:21:34.140Z,72.18
2023-04-13T00:24:37.356Z,73.20
2023-04-13T00:27:40.562Z,77.75
2023-04-13T00:30:45.123Z,71.35
2023-04-13T00:33:48.496Z,75.38
2023-04-13T00:36:52.483Z,70.60
2023-04-13T00:39:56.003Z,67.65
2023-04-13T00:43:00.609Z,74.57
2023-04-13T00:46:08.900Z,71.38
2023-04-13T00:49:12.677Z,69.80
2023-04-13T00:52:16.477Z,74.50
2023-04-13T00:55:22.002Z,79.07
2023-04-13T00:58:26.329Z,77.15
2023-04-13T01:01:31.559Z,84.60
2023-04-13T01:04:35.556Z,84.18
2023-04-13T01:07:44.942Z,83.78
2023-04-13T01:10:54.424Z,69.30
2023-04-13T01:14:04.146Z,87.93
2023-04-13T01:17:17.902Z,89.70
2023-04-13T01:20:22.472Z,88.50
2023-04-13T01:23:35.505Z,92.53
2023-04-13T01:26:54.545Z,93.22
2023-04-13T01:30:00.219Z,86.40
2023-04-13T01:33:04.482Z,88.13
2023-04-13T01:36:10.473Z,82.72
2023-04-13T01:39:20.430Z,85.00
2023-04-13T01:42:27.528Z,84.28
2023-04-13T01:45:40.713Z,94.78
2023-04-13T01:48:48.577Z,95.50
2023-04-13T01:52:13.139Z,95.15
2023-04-13T01:55:16.812Z,109.50
2023-04-13T01:58:28.255Z,101.63
2023-04-13T02:01:39.052Z,100.47
2023-04-13T02:04:42.914Z,108.50
2023-04-13T02:07:46.733Z,108.95
2023-04-13T02:10:50.180Z,109.75
2023-04-13T02:13:55.361Z,110.95
2023-04-13T02:17:00.163Z,107.28
2023-04-13T02:20:11.113Z,100.82
2023-04-13T02:23:15.841Z,105.30
2023-04-13T02:26:20.807Z,112.97
2023-04-13T02:29:24.708Z,107.70
2023-04-13T02:32:29.874Z,108.10
2023-04-13T02:35:35.580Z,110.55
2023-04-13T02:38:38.940Z,102.57
2023-04-13T02:41:48.629Z,94.67
2023-04-13T02:44:56.810Z,92.80
2023-04-13T02:48:02.346Z,94.70
2023-04-13T02:51:06.535Z,95.07
2023-04-13T02:54:13.470Z,105.25
2023-04-13T02:57:23.561Z,101.90
2023-04-13T03:00:28.671Z,112.78
2023-04-13T03:03:38.046Z,115.18
2023-04-13T03:06:44.255Z,119.82
2023-04-13T03:09:48.257Z,117.93
2023-04-13T03:12:53.602Z,117.00
2023-04-13T03:15:58.030Z,113.43
2023-04-13T03:19:05.539Z,108.05
2023-04-13T03:22:11.314Z,111.25
2023-04-13T03:25:21.106Z,111.75
2023-04-13T03:28:24.911Z,104.72
2023-04-13T03:31:29.244Z,105.38
2023-04-13T03:34:34.643Z,112.13
2023-04-13T03:37:44.931Z,118.53
2023-04-13T03:40:57.901Z,115.80
2023-04-13T03:44:03.769Z,108.25
2023-04-13T03:47:09.700Z,111.03
2023-04-13T03:50:15.654Z,115.82
2023-04-13T03:53:19.189Z,112.80
2023-04-13T03:56:24.976Z,111.35
2023-04-13T03:59:29.012Z,111.75
2023-04-13T04:02:33.131Z,103.45
2023-04-13T04:05:40.588Z,93.78
2023-04-13T04:08:45.504Z,109.60
2023-04-13T04:12:02.238Z,102.28
2023-04-13T04:15:15.958Z,111.80
2023-04-13T04:18:20.619Z,124.00
2023-04-13T04:21:33.877Z,110.53
2023-04-13T04:24:40.344Z,110.90
2023-04-13T04:27:46.878Z,111.50
2023-04-13T04:30:55.476Z,108.13
2023-04-13T04:34:01.170Z,115.70
2023-04-13T04:37:19.715Z,107.57
2023-04-13T04:40:35.970Z,108.13
2023-04-13T04:43:46.249Z,109.63
2023-04-13T04:46:52.415Z,117.10
2023-04-13T04:49:58.135Z,126.55
2023-04-13T04:53:04.718Z,131.73
2023-04-13T04:56:09.445Z,141.00
2023-04-13T04:59:24.067Z,150.55
2023-04-13T05:02:37.992Z,161.43
2023-04-13T05:05:45.613Z,169.88
2023-04-13T05:08:57.009Z,145.47
2023-04-13T05:12:01.799Z,172.63
2023-04-13T05:15:07.887Z,170.88
2023-04-13T05:18:13.161Z,181.65
2023-04-13T05:21:17.761Z,175.45
2023-04-13T05:24:31.145Z,170.73
2023-04-13T05:27:34.867Z,183.52
2023-04-13T05:30:38.242Z,169.32
2023-04-13T05:33:41.915Z,161.23
2023-04-13T05:36:45.237Z,174.10
2023-04-13T05:39:51.843Z,162.10
2023-04-13T05:42:59.140Z,168.20
2023-04-13T05:46:06.405Z,157.57
2023-04-13T05:49:10.672Z,156.70
2023-04-13T05:52:14.022Z,153.15
2023-04-13T05:55:23.576Z,154.00
2023-04-13T05:58:34.617Z,146.73
2023-04-13T06:02:01.027Z,153.25
2023-04-13T06:05:05.160Z,145.15
2023-04-13T06:08:10.611Z,137.95
2023-04-13T06:11:16.950Z,138.48
2023-04-13T06:14:20.921Z,134.60
2023-04-13T06:17:24.405Z,113.80
2023-04-13T06:20:28.014Z,107.57
2023-04-13T06:23:33.254Z,88.55
2023-04-13T06:26:40.949Z,80.95
2023-04-13T06:29:44.275Z,76.15
2023-04-13T06:32:48.009Z,64.00
2023-04-13T06:35:54.667Z,60.28
2023-04-13T06:38:59.068Z,62.53
2023-04-13T06:42:04.240Z,62.40
2023-04-13T06:45:43.633Z,69.93
2023-04-13T06:48:54.892Z,59.28
2023-04-13T06:52:01.842Z,65.07
2023-04-13T06:55:07.212Z,70.60
2023-04-13T06:58:15.868Z,69.70
2023-04-13T07:01:19.501Z,51.33
2023-04-13T07:04:24.474Z,53.22
2023-04-13T07:07:29.975Z,53.55
2023-04-13T07:10:37.397Z,53.78
2023-04-13T07:13:42.683Z,56.38
2023-04-13T07:16:48.309Z,53.88
2023-04-13T07:19:52.360Z,54.83
2023-04-13T07:22:55.767Z,49.17
2023-04-13T07:25:59.708Z,49.55
2023-04-13T07:29:12.114Z,45.83
2023-04-13T07:32:17.614Z,54.35
2023-04-13T07:35:22.671Z,48.88
2023-04-13T07:38:26.193Z,48.00
2023-04-13T07:41:29.585Z,43.05
2023-04-13T07:44:37.679Z,44.13
2023-04-13T07:47:43.780Z,49.72
2023-04-13T07:50:48.316Z,50.47
2023-04-13T07:53:57.199Z,47.03
2023-04-13T07:57:03.979Z,50.78
2023-04-13T08:00:12.372Z,47.85
2023-04-13T08:03:22.218Z,49.22
2023-04-13T08:06:27.170Z,46.47
2023-04-13T08:09:34.330Z,54.78
2023-04-13T08:12:37.671Z,43.42
2023-04-13T08:15:43.098Z,52.95
2023-04-13T08:18:46.932Z,46.33
2023-04-13T08:21:50.367Z,48.15
2023-04-13T08:24:54.678Z,50.95
2023-04-13T08:27:58.033Z,45.30
2023-04-13T08:31:02.952Z,43.95
2023-04-13T08:34:10.374Z,41.28
2023-04-13T08:37:16.060Z,45.55
2023-04-13T08:40:22.758Z,43.05
2023-04-13T08:43:29.107Z,43.80
2023-04-13T08:46:34.430Z,41.60
2023-04-13T08:49:40.652Z,44.28
2023-04-13T08:52:51.211Z,41.00
2023-04-13T08:55:55.942Z,43.53
2023-04-13T08:59:04.721Z,38.85
2023-04-13T09:02:10.387Z,38.67
2023-04-13T09:05:25.328Z,38.35
2023-04-13T09:08:35.649Z,43.00
2023-04-13T09:11:42.872Z,41.03
2023-04-13T09:14:46.294Z,41.05
2023-04-13T09:17:51.128Z,47.05
2023-04-13T09:20:59.854Z,34.42
2023-04-13T09:24:03.220Z,38.13
2023-04-13T09:27:06.496Z,35.88
2023-04-13T09:30:11.292Z,36.28
2023-04-13T09:33:18.090Z,34.85
2023-04-13T09:36:22.917Z,36.33
2023-04-13T09:39:28.114Z,36.63
2023-04-13T09:42:32.115Z,34.63
2023-04-13T09:45:36.451Z,34.38
2023-04-13T09:48:41.602Z,35.47
2023-04-13T09:51:44.891Z,35.88
2023-04-13T09:54:51.338Z,35.42
2023-04-13T09:57:54.836Z,38.63
2023-04-13T10:00:59.581Z,35.25
2023-04-13T10:04:06.688Z,37.50
2023-04-13T10:07:10.845Z,38.08
2023-04-13T10:10:14.190Z,30.23
2023-04-13T10:13:24.097Z,29.40
2023-04-13T10:16:54.004Z,30.67
2023-04-13T10:20:07.582Z,32.35
2023-04-13T10:23:11.849Z,36.92
2023-04-13T10:26:15.321Z,39.13
2023-04-13T10:29:29.196Z,34.67
2023-04-13T10:32:32.564Z,34.60
2023-04-13T10:35:40.041Z,34.60
2023-04-13T10:38:46.058Z,35.77
2023-04-13T10:42:00.157Z,33.97
2023-04-13T10:45:03.460Z,31.45
2023-04-13T10:48:07.695Z,33.17
2023-04-13T10:51:12.461Z,29.58
2023-04-13T10:54:16.004Z,29.60
2023-04-13T10:57:19.245Z,30.20
2023-04-13T11:00:29.303Z,25.55
2023-04-13T11:03:36.607Z,25.27
2023-04-13T11:06:41.464Z,24.95
2023-04-13T11:09:47.121Z,23.10
2023-04-13T11:12:51.359Z,22.50
2023-04-13T11:16:03.002Z,27.63
2023-04-13T11:19:06.801Z,29.98
2023-04-13T11:22:17.857Z,24.58
2023-04-13T11:25:21.082Z,23.00
2023-04-13T11:28:25.222Z,23.08
2023-04-13T11:31:39.027Z,22.05
2023-04-13T11:34:42.545Z,24.20
2023-04-13T11:37:49.527Z,23.67
2023-04-13T11:41:01.715Z,19.67
2023-04-13T11:44:15.746Z,17.73
2023-04-13T11:47:19.485Z,16.85
2023-04-13T11:50:23.447Z,17.30
2023-04-13T11:53:29.115Z,18.17
2023-04-13T11:56:32.598Z,19.48
2023-04-13T11:59:36.357Z,15.85
2023-04-13T12:03:00.510Z,15.52
2023-04-13T12:06:06.835Z,13.90
2023-04-13T12:09:18.045Z,12.25
2023-04-13T12:15:43.214Z,12.98
2023-04-13T12:18:49.834Z,10.45
2023-04-13T12:21:56.499Z,11.65
2023-04-13T12:25:02.586Z,15.32
2023-04-13T12:28:06.207Z,11.25
2023-04-13T12:31:12.527Z,10.48
2023-04-13T12:34:16.006Z,12.98
2023-04-13T12:37:19.332Z,14.02
2023-04-13T12:40:24.125Z,9.25
2023-04-13T12:43:28.145Z,10.55
2023-04-13T12:46:32.347Z,8.77
2023-04-13T12:49:35.888Z,8.35
2023-04-13T12:52:40.937Z,8.90
2023-04-13T12:55:45.623Z,11.30
2023-04-13T12:58:49.203Z,7.90
2023-04-13T13:01:52.520Z,8.30
2023-04-13T13:04:57.164Z,9.85
2023-04-13T13:08:00.557Z,7.82
2023-04-13T13:11:09.344Z,10.32
2023-04-13T13:14:12.734Z,8.50
2023-04-13T13:17:16.053Z,9.18
2023-04-13T13:20:19.282Z,7.60
2023-04-13T13:23:22.605Z,9.52
2023-04-13T13:26:30.611Z,9.70
2023-04-13T13:29:43.248Z,13.90
2023-04-13T13:32:46.454Z,9.82
2023-04-13T13:35:49.820Z,8.70
2023-04-13T13:38:53.138Z,9.15
2023-04-13T13:41:58.453Z,10.63
2023-04-13T13:45:01.873Z,8.23
2023-04-13T13:48:08.970Z,8.93
2023-04-13T13:51:21.561Z,10.35
2023-04-13T13:54:25.430Z,11.25
2023-04-13T13:57:30.080Z,8.73
2023-04-13T14:00:35.031Z,8.73
2023-04-13T14:03:39.031Z,8.60
2023-04-13T14:06:42.567Z,9.98
2023-04-13T14:09:46.628Z,10.82
2023-04-13T14:12:51.927Z,8.63
2023-04-13T14:15:56.822Z,11.55
2023-04-13T14:19:00.321Z,9.45
2023-04-13T14:22:03.733Z,8.30
2023-04-13T14:25:09.185Z,6.40
2023-04-13T14:28:14.735Z,7.93
2023-04-13T14:31:18.040Z,6.40
2023-04-13T14:34:22.178Z,10.52
2023-04-13T14:37:27.137Z,6.15
2023-04-13T14:40:30.562Z,5.97
2023-04-13T14:43:35.562Z,7.53
2023-04-13T14:46:39.339Z,10.57
2023-04-13T14:49:43.110Z,8.05
2023-04-13T14:52:47.053Z,7.93
2023-04-13T14:55:50.759Z,8.63
2023-04-13T14:58:55.392Z,7.20
2023-04-13T15:01:59.007Z,8.70
2023-04-13T15:05:03.084Z,9.88
2023-04-13T15:08:07.324Z,13.07
2023-04-13T15:11:10.843Z,7.22
2023-04-13T15:14:15.624Z,8.13
2023-04-13T15:17:18.883Z,10.82
2023-04-13T15:20:22.120Z,8.82
2023-04-13T15:23:25.524Z,6.85
2023-04-13T15:26:30.468Z,5.97
2023-04-13T15:29:35.071Z,10.63
2023-04-13T15:32:38.311Z,5.95
2023-04-13T15:35:41.730Z,6.28
2023-04-13T15:38:44.948Z,7.13
2023-04-13T15:41:48.165Z,5.70
2023-04-13T15:44:53.586Z,6.65
2023-04-13T15:47:57.075Z,8.10
2023-04-13T15:51:00.545Z,5.93
2023-04-13T15:54:03.784Z,7.53
2023-04-13T15:57:07.081Z,9.30
2023-04-13T16:00:13.396Z,8.95
2023-04-13T16:03:17.400Z,7.72
2023-04-13T16:06:20.743Z,10.15
2023-04-13T16:09:24.447Z,8.25
2023-04-13T16:12:31.408Z,6.90
2023-04-13T16:15:37.125Z,8.13
2023-04-13T16:18:40.626Z,9.02
2023-04-13T16:21:43.915Z,7.25
2023-04-13T16:24:47.089Z,9.30
2023-04-13T16:27:50.605Z,8.13
2023-04-13T16:30:55.190Z,10.50
2023-04-13T16:33:58.538Z,7.03
2023-04-13T16:37:01.765Z,9.35
2023-04-13T16:40:09.218Z,10.45
2023-04-13T16:43:12.542Z,11.25
2023-04-13T16:46:17.339Z,9.00
2023-04-13T16:49:20.785Z,9.02
2023-04-13T16:52:24.148Z,10.80
2023-04-13T16:55:28.893Z,12.32
2023-04-13T16:58:35.205Z,16.35
2023-04-13T17:01:40.932Z,15.90
2023-04-13T17:04:44.918Z,16.35
2023-04-13T17:07:48.913Z,23.38
2023-04-13T17:10:53.206Z,16.90
2023-04-13T17:13:57.317Z,23.52
2023-04-13T17:17:03.062Z,20.75
2023-04-13T17:20:08.558Z,16.05
2023-04-13T17:23:12.776Z,17.38
2023-04-13T17:26:16.742Z,19.42
2023-04-13T17:29:22.099Z,15.07
2023-04-13T17:32:27.507Z,12.02
2023-04-13T17:35:31.782Z,16.52
2023-04-13T17:38:36.161Z,18.02
2023-04-13T17:41:41.890Z,23.75
2023-04-13T17:44:46.162Z,21.80
2023-04-13T17:47:51.594Z,26.05
2023-04-13T17:50:55.236Z,28.75
2023-04-13T17:53:59.085Z,27.27
2023-04-13T17:57:03.007Z,30.17
2023-04-13T18:00:09.793Z,38.25
2023-04-13T18:03:16.627Z,40.17
2023-04-13T18:06:20.397Z,45.40
2023-04-13T18:09:25.460Z,57.60
2023-04-13T18:12:28.761Z,61.03
2023-04-13T18:15:34.312Z,65.13
2023-04-13T18:18:39.100Z,82.35
2023-04-13T18:21:42.279Z,88.72
2023-04-13T18:24:45.698Z,107.07
2023-04-13T18:27:49.274Z,90.35
2023-04-13T18:30:52.606Z,89.13
2023-04-13T18:33:57.708Z,87.50
2023-04-13T18:37:01.152Z,94.72
2023-04-13T18:40:05.380Z,87.03
2023-04-13T18:43:08.816Z,82.75
2023-04-13T18:46:12.858Z,79.22
2023-04-13T18:49:17.742Z,82.40
2023-04-13T18:52:21.588Z,76.75
2023-04-13T18:55:26.849Z,78.13
2023-04-13T18:58:30.554Z,75.63
2023-04-13T19:01:33.935Z,73.45
2023-04-13T19:04:40.145Z,69.45
2023-04-13T19:07:45.804Z,75.45
2023-04-13T19:10:50.246Z,71.72
2023-04-13T19:13:53.759Z,75.65
2023-04-13T19:16:57.824Z,79.57
2023-04-13T19:20:04.013Z,72.20
2023-04-13T19:23:07.788Z,71.30
2023-04-13T19:26:11.299Z,71.72
2023-04-13T19:29:16.077Z,74.28
2023-04-13T19:32:19.493Z,70.78
2023-04-13T19:35:26.265Z,74.18
2023-04-13T19:38:29.913Z,75.95
2023-04-13T19:41:33.761Z,80.97
2023-04-13T19:44:37.148Z,70.30
2023-04-13T19:47:42.519Z,70.25
2023-04-13T19:50:47.433Z,64.15
2023-04-13T19:53:51.026Z,60.60
2023-04-13T19:56:54.520Z,63.65
2023-04-13T19:59:58.339Z,53.13
2023-04-13T20:03:04.345Z,51.92
2023-04-13T20:06:09.501Z,48.88
2023-04-13T20:09:15.333Z,50.42
2023-04-13T20:12:19.208Z,47.28
2023-04-13T20:15:22.802Z,47.10
2023-04-13T20:18:27.560Z,44.03
2023-04-13T20:21:33.108Z,43.28
2023-04-13T20:24:36.468Z,39.15
2023-04-13T20:27:42.289Z,41.50
2023-04-13T20:30:45.977Z,39.17
2023-04-13T20:33:49.919Z,40.75
2023-04-13T20:36:56.515Z,39.45
2023-04-13T20:39:59.876Z,34.78
2023-04-13T20:43:04.762Z,35.75
2023-04-13T20:46:08.716Z,33.92
2023-04-13T20:49:12.159Z,34.30
2023-04-13T20:52:18.198Z,37.60
2023-04-13T20:55:22.250Z,33.05
2023-04-13T20:58:25.538Z,36.75
2023-04-13T21:01:30.193Z,29.17
2023-04-13T21:04:33.555Z,28.35
2023-04-13T21:07:40.245Z,30.25
2023-04-13T21:10:44.238Z,26.70
2023-04-13T21:13:47.574Z,24.75
2023-04-13T21:16:51.078Z,24.02
2023-04-13T21:19:54.408Z,26.33
2023-04-13T21:22:59.484Z,23.40
2023-04-13T21:26:02.921Z,30.15
2023-04-13T21:29:07.495Z,27.38
2023-04-13T21:32:11.044Z,27.08
2023-04-13T21:35:17.265Z,26.92
2023-04-13T21:38:21.934Z,26.55
2023-04-13T21:41:25.287Z,29.30
2023-04-13T21:44:30.143Z,26.73
2023-04-13T21:47:33.770Z,26.40
2023-04-13T21:50:37.039Z,28.58
2023-04-13T21:53:41.726Z,32.53
2023-04-13T21:56:46.747Z,30.52
2023-04-13T21:59:50.034Z,26.80
2023-04-13T22:02:55.333Z,32.60
2023-04-13T22:05:59.972Z,27.23
2023-04-13T22:09:04.906Z,24.48
2023-04-13T22:12:10.372Z,26.92
2023-04-13T22:15:13.613Z,24.48
2023-04-13T22:18:17.023Z,25.50
2023-04-13T22:21:20.628Z,27.25
2023-04-13T22:24:25.193Z,24.10
2023-04-13T22:27:28.363Z,24.17
2023-04-13T22:30:31.550Z,26.33
2023-04-13T22:33:36.029Z,29.83
2023-04-13T22:36:39.388Z,28.20
2023-04-13T22:39:44.118Z,27.92
2023-04-13T22:42:47.330Z,27.88
2023-04-13T22:45:59.015Z,24.90
2023-04-13T22:49:03.359Z,25.38
2023-04-13T22:52:32.037Z,25.77
2023-04-13T22:55:36.704Z,23.48
2023-04-13T22:58:39.981Z,25.77
2023-04-13T23:01:43.276Z,24.63
2023-04-13T23:04:46.846Z,25.75
2023-04-13T23:07:50.620Z,24.52
2023-04-13T23:10:55.213Z,24.67
2023-04-13T23:14:00.614Z,26.67
2023-04-13T23:17:03.883Z,24.40
2023-04-13T23:20:08.243Z,24.13
2023-04-13T23:23:11.836Z,25.15
2023-04-13T23:26:16.530Z,25.00
2023-04-13T23:29:22.065Z,24.88
2023-04-13T23:32:25.585Z,26.50
2023-04-13T23:35:28.862Z,25.40
2023-04-13T23:38:33.083Z,26.02
2023-04-13T23:41:37.697Z,26.23
2023-04-13T23:44:40.977Z,25.15
2023-04-13T23:47:44.222Z,24.15
2023-04-13T23:50:48.227Z,24.05
2023-04-13T23:53:51.421Z,24.55
2023-04-13T23:56:56.483Z,23.98
2023-04-13T23:59:59.600Z,28.23
